Flight Track Log - Related Links

Times and Time Zones

All times are in EST time to prevent confusion due to time zone crossing. See the TAM3132 flight status page for this flight to view local times or setup timezone preferences in your user account.

Time Position Orientation Groundspeed Altitude Reporting Facility
EST Latitude Longitude Course Direction KTS MPH feet Rate Location/Type
Sun 10:08:11 AM -23.6270 -46.6580 360° North  Level FlightAware ADS-B
Sun 10:09:42 AM -23.6210 -46.6610 329° Northwest 1,103 Level FlightAware ADS-B
Sun 10:10:27 AM -23.6200 -46.6610 360° North 1,864 Level FlightAware ADS-B
Sun 10:11:54 AM -23.6690 -46.6270 147° Southeast 199 229 4,100 2,598 Climbing FlightAware ADS-B
Sun 10:12:34 AM -23.6990 -46.6010 142° Southeast 214 246 5,500 1,902 Climbing FlightAware ADS-B
Sun 10:13:16 AM -23.6880 -46.5550 75° East 253 291 6,700 1,750 Climbing FlightAware ADS-B
Sun 10:13:46 AM -23.6750 -46.5150 70° East 282 325 7,600 1,846 Climbing FlightAware ADS-B
Sun 10:14:34 AM -23.6520 -46.4490 69° East 296 341 9,100 1,782 Climbing FlightAware ADS-B
Sun 10:15:27 AM -23.6250 -46.3750 68° East 316 364 10,600 1,571 Climbing FlightAware ADS-B
Sun 10:15:58 AM -23.6070 -46.3240 69° East 353 406 11,300 2,000 Climbing FlightAware ADS-B
Sun 10:16:36 AM -23.5840 -46.2590 69° East 364 419 12,900 2,025 Climbing FlightAware ADS-B
Sun 10:17:18 AM -23.5580 -46.1850 69° East 391 450 14,000 2,027 Climbing FlightAware ADS-B
Sun 10:17:50 AM -23.5370 -46.1270 68° East 391 450 15,400 2,471 Climbing FlightAware ADS-B
Sun 10:18:26 AM -23.5120 -46.0600 68° East 396 456 16,800 2,323 Climbing FlightAware ADS-B
Sun 10:18:52 AM -23.4940 -46.0120 68° East 398 458 17,800 2,163 Climbing FlightAware ADS-B
Sun 10:19:52 AM -23.4520 -45.9020 67° East 401 461 19,900 1,714 Climbing FlightAware ADS-B
Sun 10:20:37 AM -23.4130 -45.8190 63° Northeast 420 483 20,800 1,350 Climbing FlightAware ADS-B
Sun 10:21:12 AM -23.3820 -45.7550 62° Northeast 427 491 21,700 1,569 Climbing FlightAware ADS-B
Sun 10:21:42 AM -23.3540 -45.6950 63° Northeast 435 501 22,500 1,412 Climbing FlightAware ADS-B
Sun 10:22:37 AM -23.3020 -45.5850 63° Northeast 450 518 23,700 1,550 Climbing FlightAware ADS-B
Sun 10:23:42 AM -23.2410 -45.4570 63° Northeast 451 519 25,600 2,069 Climbing FlightAware ADS-B
Sun 10:24:33 AM -23.1930 -45.3570 62° Northeast 434 499 27,700 2,000 Climbing FlightAware ADS-B
Sun 10:25:03 AM -23.1670 -45.3030 62° Northeast 440 506 28,300 1,291 Climbing FlightAware ADS-B
Sun 10:25:52 AM -23.1230 -45.2000 65° Northeast 443 510 29,400 1,348 Climbing FlightAware ADS-B
Sun 10:26:32 AM -23.0910 -45.1130 68° East 450 518 30,300 1,520 Climbing FlightAware ADS-B
Sun 10:27:07 AM -23.0660 -45.0430 69° East 447 514 31,300 1,520 Climbing FlightAware ADS-B
Sun 10:27:47 AM -23.0350 -44.9590 68° East 447 514 32,200 1,029 Climbing FlightAware ADS-B
Sun 10:28:52 AM -22.9860 -44.8250 68° East 461 531 33,100 971 Climbing FlightAware ADS-B
Sun 10:29:32 AM -22.9530 -44.7350 68° East 462 532 33,900 1,015 Climbing FlightAware ADS-B
Sun 10:29:57 AM -22.9320 -44.6780 68° East 468 539 34,200 923 Climbing FlightAware ADS-B
Sun 10:30:37 AM -22.9000 -44.5920 68° East 469 540 34,900 1,200 Climbing FlightAware ADS-B
Sun 10:31:47 AM -22.8440 -44.4410 68° East 461 531 36,400 1,080 Climbing FlightAware ADS-B
Sun 10:32:17 AM -22.8210 -44.3800 68° East 464 534 36,700 480 Climbing FlightAware ADS-B
Sun 10:33:02 AM -22.7840 -44.2800 68° East 473 544 37,000 212 Climbing FlightAware ADS-B
Sun 10:33:42 AM -22.7520 -44.1930 68° East 486 559 37,000  Level FlightAware ADS-B
Sun 10:34:12 AM -22.7260 -44.1240 68° East 489 563 37,000  Level FlightAware ADS-B
Sun 10:35:02 AM -22.6860 -44.0160 68° East 487 560 37,000  Level FlightAware ADS-B
Sun 10:35:32 AM -22.6610 -43.9500 68° East 485 558 37,000  Level FlightAware ADS-B
Sun 10:36:02 AM -22.6260 -43.8810 61° Northeast 481 554 37,000  Level FlightAware ADS-B
Sun 10:37:06 AM -22.5430 -43.7470 56° Northeast 480 552 37,000  Level FlightAware ADS-B
Sun 10:37:46 AM -22.4940 -43.6670 56° Northeast 481 554 37,000  Level FlightAware ADS-B
Sun 10:38:18 AM -22.4550 -43.6030 57° Northeast 482 555 37,000  Level FlightAware ADS-B
Sun 10:39:25 AM -22.3720 -43.4690 56° Northeast 487 560 37,000  Level FlightAware ADS-B
Sun 10:40:07 AM -22.3200 -43.3850 56° Northeast 488 562 37,000 78 Level FlightAware ADS-B
Sun 10:40:42 AM -22.2750 -43.3120 56° Northeast 489 563 37,100 92 Climbing FlightAware ADS-B
Sun 10:41:12 AM -22.2370 -43.2510 56° Northeast 488 562 37,100 -81 Level FlightAware ADS-B
Sun 10:41:56 AM -22.1840 -43.1660 56° Northeast 488 562 37,000 -79 Descending FlightAware ADS-B
Sun 10:42:28 AM -22.1420 -43.0990 56° Northeast 487 560 37,000  Level FlightAware ADS-B
Sun 10:43:12 AM -22.0870 -43.0100 56° Northeast 487 560 37,000  Level FlightAware ADS-B
Sun 10:44:02 AM -22.0230 -42.9070 56° Northeast 483 556 37,000  Level FlightAware ADS-B
Sun 10:44:29 AM -21.9910 -42.8560 56° Northeast 482 555 37,000  Level FlightAware ADS-B
Sun 10:45:06 AM -21.9440 -42.7810 56° Northeast 482 555 37,000  Level FlightAware ADS-B
Sun 10:45:41 AM -21.9010 -42.7130 56° Northeast 482 555 37,000  Level FlightAware ADS-B
Sun 10:46:14 AM -21.8580 -42.6450 56° Northeast 482 555 37,000  Level FlightAware ADS-B
Sun 10:46:46 AM -21.8190 -42.5830 56° Northeast 483 556 37,000  Level FlightAware ADS-B
Sun 10:47:26 AM -21.7680 -42.5020 56° Northeast 484 557 37,000  Level FlightAware ADS-B
Sun 10:47:58 AM -21.7290 -42.4390 56° Northeast 487 560 37,000  Level FlightAware ADS-B
Sun 10:48:35 AM -21.6830 -42.3650 56° Northeast 488 562 37,000  Level FlightAware ADS-B
Sun 10:49:18 AM -21.6270 -42.2770 56° Northeast 489 563 37,000  Level FlightAware ADS-B
Sun 10:49:51 AM -21.5860 -42.2120 56° Northeast 488 562 37,000  Level FlightAware ADS-B
Sun 10:50:06 AM -21.5660 -42.1810 55° Northeast 488 562 37,000  Level FlightAware ADS-B
Sun 10:50:59 AM -21.5150 -42.1010 56° Northeast 487 560 37,000  Level FlightAware ADS-B
Sun 10:51:38 AM -21.4630 -42.0180 56° Northeast 487 560 37,000  Level FlightAware ADS-B
Sun 10:52:19 AM -21.3970 -41.9150 55° Northeast 485 558 37,000 -220 Level FlightAware ADS-B
Sun 10:53:00 AM -21.3470 -41.8350 56° Northeast 483 556 36,700 -1,125 Descending FlightAware ADS-B
Sun 10:53:23 AM -21.3170 -41.7880 56° Northeast 481 554 35,800 -2,618 Descending FlightAware ADS-B
Sun 10:53:55 AM -21.2780 -41.7270 56° Northeast 482 555 34,300 -2,595 Descending FlightAware ADS-B
Sun 10:54:37 AM -21.2240 -41.6440 55° Northeast 475 547 32,600 -2,625 Descending FlightAware ADS-B
Sun 10:54:59 AM -21.1990 -41.6040 56° Northeast 477 549 31,500 -2,530 Descending FlightAware ADS-B
Sun 10:56:00 AM -21.1270 -41.4920 55° Northeast 477 549 29,100 -2,400 Descending FlightAware ADS-B
Sun 10:56:24 AM -21.0940 -41.4410 55° Northeast 469 540 28,100 -1,227 Descending FlightAware ADS-B
Sun 10:57:28 AM -21.0250 -41.3350 55° Northeast 458 527 27,300 -1,482 Descending FlightAware ADS-B
Sun 10:59:10 AM -20.9600 -41.2320 55° Northeast 427 491 24,000 -1,947 Descending FlightAware ADS-B
Sun 10:59:59 AM -20.9080 -41.1520 55° Northeast 415 478 22,400 -1,888 Descending FlightAware ADS-B
Sun 11:00:39 AM -20.8700 -41.0920 56° Northeast 405 466 21,200 -2,250 Descending FlightAware ADS-B
Sun 11:01:19 AM -20.8160 -41.0170 52° Northeast 402 463 19,400 -2,400 Descending FlightAware ADS-B
Sun 11:02:04 AM -20.7550 -40.9580 42° Northeast 395 455 17,800 -2,188 Descending FlightAware ADS-B
Sun 11:02:44 AM -20.6970 -40.9020 42° Northeast 387 445 16,300 -2,055 Descending FlightAware ADS-B
Sun 11:03:17 AM -20.6580 -40.8630 43° Northeast 381 438 15,300 -1,816 Descending FlightAware ADS-B
Sun 11:04:00 AM -20.6050 -40.8120 42° Northeast 375 432 14,000 -2,045 Descending FlightAware ADS-B
Sun 11:04:45 AM -20.5430 -40.7520 42° Northeast 368 423 12,300 -2,023 Descending FlightAware ADS-B
Sun 11:05:26 AM -20.4980 -40.7070 43° Northeast 360 414 11,100 -1,317 Descending FlightAware ADS-B
Sun 11:06:07 AM -20.4510 -40.6620 42° Northeast 337 388 10,500 -818 Descending FlightAware ADS-B
Sun 11:06:54 AM -20.3980 -40.6110 42° Northeast 305 351 9,900 -1,011 Descending FlightAware ADS-B
Sun 11:07:42 AM -20.3470 -40.5620 42° Northeast 295 339 8,900 -1,171 Descending FlightAware ADS-B
Sun 11:08:16 AM -20.3200 -40.5360 42° Northeast 292 336 8,300 -1,433 Descending FlightAware ADS-B
Sun 11:08:49 AM -20.2740 -40.4910 43° Northeast 288 331 7,300 -1,481 Descending FlightAware ADS-B
Sun 11:09:37 AM -20.2250 -40.4430 43° Northeast 283 326 6,300 -1,310 Descending FlightAware ADS-B
Sun 11:10:16 AM -20.1980 -40.3980 57° Northeast 277 319 5,400 -1,233 Descending FlightAware ADS-B
Sun 11:10:50 AM -20.1730 -40.3680 48° Northeast 273 314 4,800 -593 Descending FlightAware ADS-B
Sun 11:11:37 AM -20.1360 -40.3380 37° Northeast 273 314 4,600 -333 Descending FlightAware ADS-B
Sun 11:12:02 AM -20.1140 -40.3200 38° Northeast 269 310 4,400 -417 Descending FlightAware ADS-B
Sun 11:12:49 AM -20.0660 -40.2830 36° Northeast 243 280 4,100 -228 Descending FlightAware ADS-B
Sun 11:13:21 AM -20.0490 -40.2640 46° Northeast 220 253 4,100 -333 Level FlightAware ADS-B
Sun 11:14:01 AM -20.0650 -40.2250 114° Southeast 214 246 3,700 -585 Descending FlightAware ADS-B
Sun 11:14:43 AM -20.0980 -40.1990 144° Southeast 209 241 3,300 -593 Descending FlightAware ADS-B
Sun 11:15:22 AM -20.1290 -40.2020 185° South 170 196 2,900 -930 Descending FlightAware ADS-B
Sun 11:15:54 AM -20.1580 -40.2210 212° Southwest 166 191 2,200 -825 Descending FlightAware ADS-B
Sun 11:16:42 AM -20.1790 -40.2350 212° Southwest 158 182 1,800 -684 Descending FlightAware ADS-B
Sun 11:17:13 AM -20.1980 -40.2470 211° Southwest 143 165 1,300 -762 Descending FlightAware ADS-B
Sun 11:17:45 AM -20.2150 -40.2580 211° Southwest 141 162 1,000 -684 Descending FlightAware ADS-B
Sun 11:18:32 AM -20.2390 -40.2750 214° Southwest 139 160 400 -766 Descending FlightAware ADS-B
Sun 11:19:04 AM -20.2560 -40.2850 209° Southwest 139 160 -750 Descending FlightAware ADS-B
Sun 11:19:52 AM -20.2630 -40.2900 214° Southwest 138 159  Level FlightAware ADS-B
Sun 11:20:32 AM -20.2630 -40.2910 270° West 138 159  Level FlightAware ADS-B
Sun 11:21:13 AM -20.2600 -40.2900 17° North 138 159  Level FlightAware ADS-B
Sun 11:21:44 AM -20.2580 -40.2890 25° Northeast 138 159  Level FlightAware ADS-B
Sun 11:22:24 AM -20.2570 -40.2880 43° Northeast 138 159  Level FlightAware ADS-B
Sun 11:25:00 AM -20.2581 -40.2864 125° Southeast  Level Estimated
Sun 11:25:02 AM -20.2610 -40.2730 125° Southeast 138 159  Level FlightAware ADS-B
Sun 11:25:36 AM -20.2570 -40.2880 286° West 138 159  Level FlightAware ADS-B
Sun 11:27:10 AM -20.2610 -40.2740 107° East 138 159  Level FlightAware ADS-B
Sun 11:30:00 AM -20.2581 -40.2864 284° West  Level Estimated
Sun 11:31:00 AM -20.2581 -40.2864 13° North  Level Estimated
Sun 11:32:00 AM -20.2581 -40.2864 13° North  Level Estimated
Sun 11:33:00 AM -20.2581 -40.2864 13° North  Level Estimated
Sun 11:34:00 AM -20.2581 -40.2864 13° North  Level Estimated
Sun 11:35:00 AM -20.2581 -40.2864 13° North  Level Estimated
Sun 11:36:00 AM -20.2581 -40.2864 13° North  Level Estimated
Sun 11:37:00 AM -20.2581 -40.2864 13° North  Level Estimated
Sun 11:38:00 AM -20.2581 -40.2864 13° North  Level Estimated

Login

Don't have an account? Register now (free) for customized features, flight alerts, and more!